HLG weather

Legaria Heliport
Miguel Hidalgo, Distrito Federal, Mexico

Public forecast

Using degrees Celsius for public forecast. Weather courtesy of forecast.io.

METAR (pilot weather report)

Closest report is Licenciado Benito Juarez International Airport, 7.7 nm (14.2 km) E. Retrieved 2019/06/16 21:46 UTC (1 hour ago):

MMMX 162146Z 13008KT 8SM SCT020 27/08 A3019 NOSIG RMK 8/200 HZY CB SE

TAF (pilot weather forecast)

Closest forecast is Licenciado Benito Juarez International Airport, 7.7 nm (14.2 km) E. Retrieved 2019/06/16 18:36 UTC (4 hours ago):

TAF MMMX 161634Z 1618/1724 04010KT 6SM HZ SCT020 BKN080 TX26/1621Z TN15/1712Z BECMG 1621/1622 SCT020CB TEMPO 1623/1703 3SM TSRA FM170400 07005KT 5SM HZ SCT020 TEMPO 1711/1715 BKN020 FM171700 07006KT 6SM HZ SCT020 FM172100 04010KT 6SM HZ SCT020 SCT100 PROB40 1722/1724 5SM TSRA BKN020CB